Airfield :
LOGIN :

Register | Disclaimer

   EN    FR    IT 

 










Legend :    VFR   Marginal VFR   IFR   Intensive IFR   Very Intensive IFR
Visi :
Ceiling :
>= 8 km
>= 3000ft
5 to 8 km
1000 to 3000 ft
1500m to 5 km
500 to 1000 ft
800 to 1500m
200 to 500 ft
< 800m
< 200 ft
Symbols :   Thunderstorms  Fog  Heavy snow  Heavy precipitations  Wind > 20 kt
SIGMETs :     Misc.  Thunderstorms  Icing  Turbulence  Mountain Waves  Volcanic Ashes






- Airport Elevation : 44 ft
- IATA code : SOU


EGHI - Southampton

CURRENT METAR :
  • 261120Z 24007KT 9999 BKN032 07/02 Q1035

EXPIRED METARs :
  • 261050Z 22005KT 190V250 9999 BKN030 06/02 Q1035
  • 261020Z 20005KT 9999 BKN030 06/02 Q1035
  • 260950Z VRB01KT 8000 BKN030 05/02 Q1035
  • 260920Z VRB02KT 8000 OVC029 05/03 Q1035
  • 260850Z 00000KT 8000 OVC027 05/02 Q1035

TAF TAF EGHI
Valid from the 26 at 12:00 until the 26 at 21:00 UTC


261105Z 2612/2621 22002KT 9999 SCT025
PROB30
TEMPO 2612/2621 6000
ATIS : +44 23 8062 7103



MET'MAP, your aeronautical weather chart ! - Copyright ORBIFLY December 2007 - Disclaimer

ORBIFLY MET'MAP TEAM :

Programming & Development : Alexandra Zaïnal
Original concept : Baudouin d'Aumeries
Technical & hardware support : Manuel Goepfert
Assistance : Marc-Olivier Méhu

Contact : metmap@orbifly.com




SOURCES & CREDITS :

   NOAA